Home > Products > Valid Products > MTR

000
SAUS46 KMFR 012104
MTRMHS
SPECI KMHS 012100Z AUTO 2SM HZ SCT001 37/09 A3003 RMK AO2 VIS 3/4V5
T03670094





000
SAUS46 KMFR 012057
MTRSXT
METAR KSXT 012056Z AUTO 00000KT 10SM CLR 30/14 A3007 RMK AO2 SLP116
T03000144 58003





000
SAUS46 KMFR 012052
MTRMHS
SPECI KMHS 012048Z AUTO 1SM HZ VV001 37/09 A3003 RMK AO2 VIS 1/2V5
T03670089





000
SAUS46 KMFR 011957
MTRSXT
METAR KSXT 011956Z AUTO 00000KT 10SM CLR 30/15 A3008 RMK AO2 SLP119
T03000150





000
SAUS46 KMFR 011900
MTRMHS
METAR KMHS 011856Z AUTO 00000KT 10SM CLR 34/11 A3005 RMK AO2 SLP146
T03440106





000
SAUS46 KMFR 011857
MTRSXT
METAR KSXT 011856Z AUTO 00000KT 10SM CLR 28/14 A3008 RMK AO2 SLP122
T02830139





000
SAUS46 KMFR 011857
MTRSXT
METAR KSXT 011856Z AUTO 00000KT 10SM CLR 28/14 A3008 RMK AO2 SLP122
T02830139





000
SAUS46 KMFR 011757
MTRSXT
METAR KSXT 011756Z AUTO 12005KT 10SM CLR 27/14 A3008 RMK AO2 SLP124
T02670139 10267 20189 53001





000
SAUS46 KMFR 011700
MTRMHS
METAR KMHS 011656Z AUTO 00000KT 10SM CLR 31/14 A3006 RMK AO2 SLP153
T03060139





000
SAUS46 KMFR 011700
MTRMHS
METAR KMHS 011656Z AUTO 00000KT 10SM CLR 31/14 A3006 RMK AO2 SLP153
T03060139





000
SAUS46 KMFR 011657
MTRSXT
METAR KSXT 011656Z AUTO 00000KT 10SM CLR 26/13 A3008 RMK AO2 SLP122
T02560133





000
SAUS46 KMFR 011557
MTRSXT
METAR KSXT 011556Z AUTO 00000KT 10SM CLR 24/13 A3008 RMK AO2 SLP124
T02390128





000
SAUS46 KMFR 011457
MTRSXT
METAR KSXT 011456Z AUTO 00000KT 10SM CLR 22/12 A3008 RMK AO2 SLP124
T02220122 55001





000
SAUS46 KMFR 011457
MTRSXT
METAR KSXT 011456Z AUTO 00000KT 10SM CLR 22/12 A3008 RMK AO2 SLP124
T02220122 55001





000
SAUS46 KMFR 011357
MTRSXT
METAR KSXT 011356Z AUTO 07003KT 10SM CLR 21/11 A3007 RMK AO2 SLP122
T02110111





000
SAUS46 KMFR 011357
MTRSXT
METAR KSXT 011356Z AUTO 07003KT 10SM CLR 21/11 A3007 RMK AO2 SLP122
T02110111





000
SAUS46 KMFR 011300
MTRMHS
METAR KMHS 011256Z AUTO 05003KT 10SM CLR 16/09 A3006 RMK AO2 SLP156
T01610094





000
SAUS46 KMFR 011300
MTRMHS
METAR KMHS 011256Z AUTO 05003KT 10SM CLR 16/09 A3006 RMK AO2 SLP156
T01610094





000
SAUS46 KMFR 011257
MTRSXT
METAR KSXT 011256Z AUTO 05004KT 10SM CLR 20/10 A3007 RMK AO2 SLP121
T02000100





000
SAUS46 KMFR 011257
MTRSXT
METAR KSXT 011256Z AUTO 05004KT 10SM CLR 20/10 A3007 RMK AO2 SLP121
T02000100





000
SAUS46 KMFR 011157
MTRSXT
METAR KSXT 011156Z AUTO 05005KT 10SM CLR 20/10 A3008 RMK AO2 SLP120
T02000100 10200 20178 56006





000
SAUS46 KMFR 011157
MTRSXT
METAR KSXT 011156Z AUTO 05005KT 10SM CLR 20/10 A3008 RMK AO2 SLP120
T02000100 10200 20178 56006





000
SAUS46 KMFR 011057
MTRSXT
METAR KSXT 011056Z AUTO 36007KT 10SM CLR 18/10 A3008 RMK AO2 SLP124
T01780100





000
SAUS46 KMFR 010957
MTRSXT
METAR KSXT 010956Z AUTO 01009KT 10SM CLR 19/09 A3009 RMK AO2 SLP125
T01940094





000
SAUS46 KMFR 010857
MTRSXT
METAR KSXT 010856Z AUTO 36010KT 10SM CLR 19/09 A3010 RMK AO2 SLP130
T01890094 56007





000
SAUS46 KMFR 010757
MTRSXT
METAR KSXT 010756Z AUTO 35011KT 10SM CLR 19/09 A3010 RMK AO2 SLP134
T01890094 402890161





000
SAUS46 KMFR 010657
MTRSXT
METAR KSXT 010656Z AUTO 35010KT 10SM CLR 19/09 A3011 RMK AO2 SLP139
T01940094





000
SAUS46 KMFR 010657
MTRSXT
METAR KSXT 010656Z AUTO 35010KT 10SM CLR 19/09 A3011 RMK AO2 SLP139
T01940094





000
SAUS46 KMFR 010557
MTRSXT
METAR KSXT 010556Z AUTO 35010G18KT 10SM CLR 20/09 A3012 RMK AO2
SLP143 T02000094 10278 20200 53007





000
SAUS46 KMFR 010557
MTRSXT
METAR KSXT 010556Z AUTO 35010G18KT 10SM CLR 20/09 A3012 RMK AO2
SLP143 T02000094 10278 20200 53007





000
SAUS46 KMFR 010500
MTRMHS
METAR KMHS 010456Z AUTO 34003KT 10SM CLR 26/11 A3004 RMK AO2 SLP147
T02610106





000
SAUS46 KMFR 010500
MTRMHS
METAR KMHS 010456Z AUTO 34003KT 10SM CLR 26/11 A3004 RMK AO2 SLP147
T02610106





000
SAUS46 KMFR 010457
MTRSXT
METAR KSXT 010456Z AUTO 35007G16KT 10SM CLR 21/09 A3011 RMK AO2
SLP139 T02060094





000
SAUS46 KMFR 010457
MTRSXT
METAR KSXT 010456Z AUTO 35007G16KT 10SM CLR 21/09 A3011 RMK AO2
SLP139 T02060094





000
SAUS46 KMFR 010357
MTRSXT
METAR KSXT 010356Z AUTO 35008G16KT 10SM CLR 22/09 A3009 RMK AO2
SLP132 T02170089





000
SAUS46 KMFR 010257
MTRSXT
METAR KSXT 010256Z AUTO VRB06KT 10SM CLR 23/08 A3010 RMK AO2 SLP134
T02330078 55003





000
SAUS46 KMFR 010257
MTRSXT
METAR KSXT 010256Z AUTO VRB06KT 10SM CLR 23/08 A3010 RMK AO2 SLP134
T02330078 55003





000
SAUS46 KMFR 010157
MTRSXT
METAR KSXT 010156Z AUTO VRB05KT 10SM CLR 26/08 A3009 RMK AO2 SLP133
T02560078





000
SAUS46 KMFR 010157
MTRSXT
METAR KSXT 010156Z AUTO VRB05KT 10SM CLR 26/08 A3009 RMK AO2 SLP133
T02560078





000
SAUS46 KMFR 010057
MTRSXT
METAR KSXT 010056Z AUTO VRB06KT 10SM CLR 27/08 A3010 RMK AO2 SLP133
T02670078





000
SAUS46 KMFR 010057
MTRSXT
METAR KSXT 010056Z AUTO VRB06KT 10SM CLR 27/08 A3010 RMK AO2 SLP133
T02670078





000
SAUS46 KMFR 302357
MTRSXT
METAR KSXT 302356Z AUTO VRB05KT 10SM CLR 28/09 A3011 RMK AO2 SLP134
T02780094 10289 20233 56009





000
SAUS46 KMFR 302357
MTRSXT
METAR KSXT 302356Z AUTO VRB05KT 10SM CLR 28/09 A3011 RMK AO2 SLP134
T02780094 10289 20233 56009





000
SAUS46 KMFR 302300
MTRMHS
METAR KMHS 302256Z AUTO 00000KT 10SM CLR 36/03 A3002 RMK AO2 SLP141
T03610033





000
SAUS46 KMFR 302300
MTRMHS
METAR KMHS 302256Z AUTO 00000KT 10SM CLR 36/03 A3002 RMK AO2 SLP141
T03610033





000
SAUS46 KMFR 302257
MTRSXT
METAR KSXT 302256Z AUTO VRB04KT 10SM CLR 28/09 A3011 RMK AO2 SLP139
T02830094





000
SAUS46 KMFR 302257
MTRSXT
METAR KSXT 302256Z AUTO VRB04KT 10SM CLR 28/09 A3011 RMK AO2 SLP139
T02830094





000
SAUS46 KMFR 302157
MTRSXT
METAR KSXT 302156Z AUTO VRB04KT 10SM CLR 28/11 A3013 RMK AO2 SLP141
T02830106





000
SAUS46 KMFR 302100
MTRMHS
METAR KMHS 302056Z AUTO 00000KT 10SM CLR 36/09 A3005 RMK AO2 SLP150
T03560089 58016





000
SAUS46 KMFR 302057
MTRSXT
METAR KSXT 302056Z AUTO VRB05KT 10SM CLR 28/12 A3014 RMK AO2 SLP141
T02780122 58008





000
SAUS46 KMFR 301957
MTRSXT
METAR KSXT 301956Z AUTO VRB03KT 10SM CLR 27/13 A3016 RMK AO2 SLP150
T02670128





000
SAUS46 KMFR 301857
MTRSXT
METAR KSXT 301856Z AUTO VRB04KT 10SM CLR 25/14 A3016 RMK AO2 SLP158
T02500144





000
SAUS46 KMFR 301800
MTRMHS
METAR KMHS 301756Z AUTO VRB04KT 10SM CLR 30/14 A3010 RMK AO2 SLP171
T03000139 10306 20133 58007





000
SAUS46 KMFR 301800
MTRMHS
METAR KMHS 301756Z AUTO VRB04KT 10SM CLR 30/14 A3010 RMK AO2 SLP171
T03000139 10306 20133 58007





000
SAUS46 KMFR 301757
MTRSXT
METAR KSXT 301756Z AUTO 00000KT 10SM CLR 23/16 A3016 RMK AO2 SLP159
T02330156 10239 20161 53002





000
SAUS46 KMFR 301757
MTRSXT
METAR KSXT 301756Z AUTO 00000KT 10SM CLR 23/16 A3016 RMK AO2 SLP159
T02330156 10239 20161 53002





000
SAUS46 KMFR 301700
MTRMHS
METAR KMHS 301656Z AUTO 29003KT 10SM CLR 28/14 A3011 RMK AO2 SLP177
T02830139





000
SAUS46 KMFR 301700
MTRMHS
METAR KMHS 301656Z AUTO 29003KT 10SM CLR 28/14 A3011 RMK AO2 SLP177
T02830139





000
SAUS46 KMFR 301657
MTRSXT
METAR KSXT 301656Z AUTO 00000KT 10SM CLR 23/15 A3016 RMK AO2 SLP156
T02330150





000
SAUS46 KMFR 301557
MTRSXT
METAR KSXT 301556Z AUTO 00000KT 10SM CLR 22/13 A3016 RMK AO2 SLP155
T02220128





000
SAUS46 KMFR 301457
MTRSXT
METAR KSXT 301456Z AUTO 03008KT 10SM CLR 19/12 A3016 RMK AO2 SLP157
T01940122 50001





000
SAUS46 KMFR 301357
MTRSXT
METAR KSXT 301356Z AUTO 03006KT 10SM CLR 18/12 A3016 RMK AO2 SLP160
T01780122





000
SAUS46 KMFR 301357
MTRSXT
METAR KSXT 301356Z AUTO 03006KT 10SM CLR 18/12 A3016 RMK AO2 SLP160
T01780122





000
SAUS46 KMFR 301257
MTRSXT
METAR KSXT 301256Z AUTO 02010KT 10SM CLR 17/12 A3015 RMK AO2 SLP155
T01720122





000
SAUS46 KMFR 301257
MTRSXT
METAR KSXT 301256Z AUTO 02010KT 10SM CLR 17/12 A3015 RMK AO2 SLP155
T01720122





000
SAUS46 KMFR 301157
MTRSXT
METAR KSXT 301156Z AUTO 02005KT 10SM CLR 17/12 A3015 RMK AO2 SLP152
60000 T01720117 10194 20161 55003





000
SAUS46 KMFR 301057
MTRSXT
METAR KSXT 301056Z AUTO 01009KT 10SM CLR 16/13 A3015 RMK AO2
RAB31E40 SLP150 P0000 T01610128





000
SAUS46 KMFR 300957
MTRSXT
METAR KSXT 300956Z AUTO 01008KT 10SM CLR 17/13 A3015 RMK AO2 RAE12
SLP151 P0000 T01720128





000
SAUS46 KMFR 300857
MTRSXT
METAR KSXT 300856Z AUTO 03009KT 10SM -RA CLR 19/09 A3016 RMK AO2
SLP152 P0000 60000 T01940094 58001





000
SAUS46 KMFR 300857
MTRSXT
METAR KSXT 300856Z AUTO 03009KT 10SM -RA CLR 19/09 A3016 RMK AO2
SLP152 P0000 60000 T01940094 58001





000
SAUS46 KMFR 300757
MTRSXT
METAR KSXT 300756Z AUTO 02009KT 10SM -RA CLR 19/11 A3016 RMK AO2
RAB46 SLP153 P0000 T01940106 402830167





000
SAUS46 KMFR 300657
MTRSXT
METAR KSXT 300656Z AUTO 35008KT 10SM CLR 18/12 A3016 RMK AO2 SLP158
T01830122





000
SAUS46 KMFR 300557
MTRSXT
METAR KSXT 300556Z AUTO 35008KT 10SM CLR 19/12 A3016 RMK AO2 SLP158
T01890122 10272 20189 51011





000
SAUS46 KMFR 300557
MTRSXT
METAR KSXT 300556Z AUTO 35008KT 10SM CLR 19/12 A3016 RMK AO2 SLP158
T01890122 10272 20189 51011





000
SAUS46 KMFR 300457
MTRSXT
METAR KSXT 300456Z AUTO 35007G15KT 10SM CLR 20/13 A3016 RMK AO2
SLP157 T02000128





000
SAUS46 KMFR 300457
MTRSXT
METAR KSXT 300456Z AUTO 35007G15KT 10SM CLR 20/13 A3016 RMK AO2
SLP157 T02000128





000
SAUS46 KMFR 300400
MTRMHS
METAR KMHS 300356Z AUTO 00000KT 10SM CLR 22/08 A3007 RMK AO2 SLP163
T02220078





000
SAUS46 KMFR 300400
MTRMHS
METAR KMHS 300356Z AUTO 00000KT 10SM CLR 22/08 A3007 RMK AO2 SLP163
T02220078





000
SAUS46 KMFR 300357
MTRSXT
METAR KSXT 300356Z AUTO 34007KT 10SM CLR 21/13 A3014 RMK AO2 SLP151
T02060133





000
SAUS46 KMFR 300257
MTRSXT
METAR KSXT 300256Z AUTO VRB04KT 10SM CLR 23/14 A3013 RMK AO2 SLP145
T02280144 53003





000
SAUS46 KMFR 300257
MTRSXT
METAR KSXT 300256Z AUTO VRB04KT 10SM CLR 23/14 A3013 RMK AO2 SLP145
T02280144 53003





000
SAUS46 KMFR 300157
MTRSXT
METAR KSXT 300156Z AUTO 10SM CLR 24/14 A3011 RMK AO2 SLP141
T02440144





000
SAUS46 KMFR 300157
MTRSXT
METAR KSXT 300156Z AUTO 10SM CLR 24/14 A3011 RMK AO2 SLP141
T02440144





000
SAUS46 KMFR 300057
MTRSXT
METAR KSXT 300056Z AUTO 00000KT 10SM CLR 26/14 A3012 RMK AO2 SLP141
T02610144





000
SAUS46 KMFR 292357
MTRSXT
METAR KSXT 292356Z AUTO 00000KT 10SM CLR 27/14 A3012 RMK AO2 SLP141
T02670144 10283 20228 57007





000
SAUS46 KMFR 292357
MTRSXT
METAR KSXT 292356Z AUTO 00000KT 10SM CLR 27/14 A3012 RMK AO2 SLP141
T02670144 10283 20228 57007





000
SAUS46 KMFR 292257
MTRSXT
METAR KSXT 292256Z AUTO 35003KT 10SM CLR 28/14 A3012 RMK AO2 SLP140
T02780144





000
SAUS46 KMFR 292157
MTRSXT
METAR KSXT 292156Z AUTO 00000KT 10SM CLR 28/15 A3013 RMK AO2 SLP144
T02830150





000
SAUS46 KMFR 292157
MTRSXT
METAR KSXT 292156Z AUTO 00000KT 10SM CLR 28/15 A3013 RMK AO2 SLP144
T02830150





000
SAUS46 KMFR 292057
MTRSXT
METAR KSXT 292056Z AUTO VRB03KT 10SM CLR 27/11 A3014 RMK AO2 SLP149
T02670111 50001





000
SAUS46 KMFR 292057
MTRSXT
METAR KSXT 292056Z AUTO VRB03KT 10SM CLR 27/11 A3014 RMK AO2 SLP149
T02670111 50001





000
SAUS46 KMFR 291957
MTRSXT
METAR KSXT 291956Z AUTO VRB03KT 10SM SCT042 26/15 A3014 RMK AO2
SLP150 T02610150





000
SAUS46 KMFR 291957
MTRSXT
METAR KSXT 291956Z AUTO VRB03KT 10SM SCT042 26/15 A3014 RMK AO2
SLP150 T02610150





000
SAUS46 KMFR 291857
MTRSXT
METAR KSXT 291856Z AUTO VRB03KT 10SM CLR 24/14 A3014 RMK AO2 SLP152
T02440144





000
SAUS46 KMFR 291757
MTRSXT
METAR KSXT 291756Z AUTO 00000KT 10SM CLR 24/16 A3014 RMK AO2 SLP150
T02390156 10244 20167 51008





000
SAUS46 KMFR 291757
MTRSXT
METAR KSXT 291756Z AUTO 00000KT 10SM CLR 24/16 A3014 RMK AO2 SLP150
T02390156 10244 20167 51008





000
SAUS46 KMFR 291657
MTRSXT
METAR KSXT 291656Z AUTO VRB03KT 10SM CLR 22/16 A3013 RMK AO2 SLP149
T02170156





000
SAUS46 KMFR 291557
MTRSXT
METAR KSXT 291556Z AUTO 00000KT 10SM CLR 22/15 A3012 RMK AO2 SLP145
T02170150





000
SAUS46 KMFR 291557
MTRSXT
METAR KSXT 291556Z AUTO 00000KT 10SM CLR 22/15 A3012 RMK AO2 SLP145
T02170150





000
SAUS46 KMFR 291457
MTRSXT
METAR KSXT 291456Z AUTO VRB03KT 10SM CLR 20/13 A3011 RMK AO2 SLP141
T02000133 53006





000
SAUS46 KMFR 291457
MTRSXT
METAR KSXT 291456Z AUTO VRB03KT 10SM CLR 20/13 A3011 RMK AO2 SLP141
T02000133 53006





000
SAUS46 KMFR 291357
MTRSXT
METAR KSXT 291356Z AUTO 21003KT 10SM CLR 18/11 A3010 RMK AO2 SLP136
T01830111





000
SAUS46 KMFR 291357
MTRSXT
METAR KSXT 291356Z AUTO 21003KT 10SM CLR 18/11 A3010 RMK AO2 SLP136
T01830111





000
SAUS46 KMFR 291257
MTRSXT
METAR KSXT 291256Z AUTO 30004KT 10SM CLR 17/12 A3009 RMK AO2 SLP134
T01720122





000
SAUS46 KMFR 291257
MTRSXT
METAR KSXT 291256Z AUTO 30004KT 10SM CLR 17/12 A3009 RMK AO2 SLP134
T01720122





000
SAUS46 KMFR 291157
MTRSXT
METAR KSXT 291156Z AUTO 31006KT 10SM CLR 17/13 A3009 RMK AO2 SLP137
T01670133 10183 20167 53005





000
SAUS46 KMFR 291157
MTRSXT
METAR KSXT 291156Z AUTO 31006KT 10SM CLR 17/13 A3009 RMK AO2 SLP137
T01670133 10183 20167 53005





000
SAUS46 KMFR 291100
MTRMHS
METAR KMHS 291056Z AUTO 00000KT 10SM CLR 13/07 A3011 RMK AO2 SLP178
T01330072





000
SAUS46 KMFR 291057
MTRSXT
METAR KSXT 291056Z AUTO 00000KT 10SM CLR 18/13 A3008 RMK AO2 SLP132
T01780133





000
SAUS46 KMFR 290957
MTRSXT
METAR KSXT 290956Z AUTO 34006KT 10SM CLR 17/14 A3007 RMK AO2 SLP131
T01670139





000
SAUS46 KMFR 290857
MTRSXT
METAR KSXT 290856Z AUTO 34008KT 10SM CLR 17/14 A3007 RMK AO2 SLP133
T01670139 58002





000
SAUS46 KMFR 290857
MTRSXT
METAR KSXT 290856Z AUTO 34008KT 10SM CLR 17/14 A3007 RMK AO2 SLP133
T01670139 58002





000
SAUS46 KMFR 290757
MTRSXT
METAR KSXT 290756Z AUTO 34008KT 10SM CLR 17/14 A3008 RMK AO2 SLP133
T01720139 402610172





000
SAUS46 KMFR 290657
MTRSXT
METAR KSXT 290656Z AUTO 32008KT 10SM CLR 18/14 A3008 RMK AO2 SLP133
T01780139





000
SAUS46 KMFR 290557
MTRSXT
METAR KSXT 290556Z AUTO 33007KT 10SM CLR 18/14 A3008 RMK AO2 SLP132
T01830144 10256 20183 53007





000
SAUS46 KMFR 290557
MTRSXT
METAR KSXT 290556Z AUTO 33007KT 10SM CLR 18/14 A3008 RMK AO2 SLP132
T01830144 10256 20183 53007





000
SAUS46 KMFR 290457
MTRSXT
METAR KSXT 290456Z AUTO 33009KT 10SM CLR 19/14 A3006 RMK AO2 SLP122
T01940139





000
SAUS46 KMFR 290357
MTRSXT
METAR KSXT 290356Z AUTO 34009G15KT 10SM CLR 21/13 A3005 RMK AO2
SLP120 T02060133





000
SAUS46 KMFR 290357
MTRSXT
METAR KSXT 290356Z AUTO 34009G15KT 10SM CLR 21/13 A3005 RMK AO2
SLP120 T02060133





000
SAUS46 KMFR 290257
MTRSXT
METAR KSXT 290256Z AUTO 34007KT 10SM CLR 22/13 A3005 RMK AO2 SLP120
T02170133 56009





000
SAUS46 KMFR 290157
MTRSXT
METAR KSXT 290156Z AUTO VRB05KT 10SM CLR 24/14 A3006 RMK AO2 SLP116
T02440139





000
SAUS46 KMFR 290157
MTRSXT
METAR KSXT 290156Z AUTO VRB05KT 10SM CLR 24/14 A3006 RMK AO2 SLP116
T02440139





000
SAUS46 KMFR 290057
MTRSXT
METAR KSXT 290056Z AUTO VRB06KT 10SM BKN100 25/16 A3007 RMK AO2
SLP118 T02500156





000
SAUS46 KMFR 290057
MTRSXT
METAR KSXT 290056Z AUTO VRB06KT 10SM BKN100 25/16 A3007 RMK AO2
SLP118 T02500156





000
SAUS46 KMFR 282357
MTRSXT
METAR KSXT 282356Z AUTO 34006KT 10SM SCT110 23/16 A3008 RMK AO2
SLP123 60000 T02330161 10256 20211 58007





000
SAUS46 KMFR 282357
MTRSXT
METAR KSXT 282356Z AUTO 34006KT 10SM SCT110 23/16 A3008 RMK AO2
SLP123 60000 T02330161 10256 20211 58007





000
SAUS46 KMFR 282300
MTRSXT
METAR KSXT 282156Z AUTO 36006KT 10SM OVC100 23/13 A3010 RMK AO2
RAB22E31 SLP133 P0000 T02280133





000
SAUS46 KMFR 282300
MTRSXT
METAR KSXT 282256Z AUTO 33004KT 10SM BKN110 24/17 A3010 RMK AO2
SLP131 T02440172





000
SAUS46 KMFR 282200
MTRMHS
METAR KMHS 282156Z AUTO 00000KT 10SM FEW120 31/08 A3008 RMK AO2
SLP163 T03060083





    US Dept of Commerce
    National Oceanic and Atmospheric Administration
    National Weather Service
    1325 East West Highway
    Silver Spring, MD 20910
    Page Author: NWS Internet Services Team
Disclaimer
Information Quality
Credits
Glossary
Privacy Policy
Freedom of Information Act (FOIA)
About Us
Career Opportunities